Time;durP1;ratioP1;P1;durP2;ratioP2;P2;SDS_P1;SDS_P2;PMS_P1;PMS_P2;Temp;Humidity;BMP_temperature;BMP_pressure;BME280_temperature;BME280_humidity;BME280_pressure;Samples;Min_cycle;Max_cycle;Signal;HPM_P1;HPM_P2
2022/10/20 00:02:32;;;;;;;2.95;2.53;;;;;;;19.07;65.88;96779.69;10565368;28;20101;-30
2022/10/20 00:07:33;;;;;;;2.63;2.20;;;;;;;19.06;64.61;96783.06;10562716;28;20033;-30
2022/10/20 00:12:33;;;;;;;2.27;2.07;;;;;;;19.03;64.49;96791.56;10565077;28;20032;-32
2022/10/20 00:17:33;;;;;;;3.77;2.40;;;;;;;19.02;64.34;96776.34;10563031;28;20028;-31
2022/10/20 00:22:34;;;;;;;2.83;2.37;;;;;;;19.01;64.58;96770.41;10553858;28;20658;-31
2022/10/20 00:27:34;;;;;;;2.40;2.20;;;;;;;19.02;64.32;96756.03;10563173;28;20497;-31
2022/10/20 00:32:35;;;;;;;3.03;2.42;;;;;;;19.02;64.19;96753.50;10555187;28;20070;-31
2022/10/20 00:37:35;;;;;;;2.53;2.30;;;;;;;19.01;64.05;96749.28;10545420;28;20409;-30
2022/10/20 00:42:36;;;;;;;3.63;2.13;;;;;;;19.00;64.25;96747.59;10561337;28;20174;-31
2022/10/20 00:47:51;;;;;;;2.00;1.80;;;;;;;19.09;67.60;96745.03;10559659;28;20039;-31
2022/10/20 00:52:53;;;;;;;2.90;2.60;;;;;;;19.11;67.55;96738.25;10545982;28;20409;-31
2022/10/20 00:57:56;;;;;;;3.33;2.70;;;;;;;19.11;65.86;96744.19;10555295;28;20516;-30
2022/10/20 01:02:59;;;;;;;2.38;2.17;;;;;;;19.08;65.79;96745.88;10554311;28;20082;-31
2022/10/20 01:08:00;;;;;;;3.45;2.22;;;;;;;19.03;65.65;96734.88;10552302;28;20085;-30
2022/10/20 01:13:16;;;;;;;4.10;1.90;;;;;;;19.05;65.22;96741.66;10555751;28;20036;-30
2022/10/20 01:18:40;;;;;;;2.53;1.90;;;;;;;19.04;65.25;96734.03;10549321;28;20065;-30
2022/10/20 01:23:53;;;;;;;1.83;1.73;;;;;;;19.04;65.13;96734.03;10559575;28;20118;-30
2022/10/20 01:28:58;;;;;;;2.10;1.90;;;;;;;19.02;64.49;96731.47;10560820;28;20259;-30
2022/10/20 01:34:10;;;;;;;2.20;2.00;;;;;;;19.02;64.64;96730.66;10558213;28;20043;-31
2022/10/20 01:39:33;;;;;;;2.42;2.22;;;;;;;19.02;64.31;96720.50;10558049;28;20044;-30
2022/10/20 01:44:37;;;;;;;1.92;1.83;;;;;;;18.99;64.14;96708.66;10550549;28;20455;-30
2022/10/20 01:49:42;;;;;;;3.80;2.17;;;;;;;19.05;67.15;96710.34;10554036;28;20173;-30
2022/10/20 01:54:43;;;;;;;2.47;2.13;;;;;;;19.09;67.49;96699.34;10557494;28;20512;-31
2022/10/20 01:59:49;;;;;;;2.20;1.83;;;;;;;19.10;65.96;96698.50;10556168;28;20023;-32
2022/10/20 02:05:29;;;;;;;2.42;1.90;;;;;;;19.09;65.65;96696.81;10561236;28;20122;-31
2022/10/20 02:10:38;;;;;;;2.78;2.00;;;;;;;19.02;65.43;96687.53;10564434;28;20412;-31
2022/10/20 02:15:44;;;;;;;1.88;1.67;;;;;;;19.03;64.94;96695.16;10560367;28;20098;-31
2022/10/20 02:20:49;;;;;;;2.20;2.00;;;;;;;19.01;65.42;96686.66;10560581;28;20035;-31
2022/10/20 02:25:52;;;;;;;1.88;1.73;;;;;;;19.03;65.53;96697.69;10567769;28;20034;-31
2022/10/20 02:30:54;;;;;;;2.33;2.05;;;;;;;19.03;64.72;96689.22;10564426;28;20047;-31
2022/10/20 02:35:57;;;;;;;2.00;1.83;;;;;;;19.03;65.40;96712.03;10564762;28;20034;-31
2022/10/20 02:40:57;;;;;;;2.25;1.67;;;;;;;19.02;64.34;96713.72;10564260;28;20125;-31
2022/10/20 02:45:57;;;;;;;2.07;1.87;;;;;;;19.02;64.55;96710.34;10561517;28;20032;-31
2022/10/20 02:50:58;;;;;;;2.70;2.17;;;;;;;19.01;65.27;96706.97;10564446;28;20043;-31
2022/10/20 02:55:58;;;;;;;2.10;1.90;;;;;;;19.05;67.46;96705.25;10570194;28;20040;-31
2022/10/20 03:00:59;;;;;;;3.00;1.75;;;;;;;19.07;67.01;96683.25;10565543;28;20056;-30
2022/10/20 03:06:09;;;;;;;1.90;1.80;;;;;;;19.09;65.55;96676.50;10553830;28;20061;-30
2022/10/20 03:11:09;;;;;;;3.92;2.08;;;;;;;19.04;65.74;96668.06;10565731;28;20632;-30
2022/10/20 03:16:10;;;;;;;1.90;1.77;;;;;;;19.03;64.92;96666.38;10559775;28;20031;-30
2022/10/20 03:21:10;;;;;;;1.87;1.77;;;;;;;19.03;65.41;96656.22;10559999;28;20662;-30
2022/10/20 03:26:11;;;;;;;1.80;1.70;;;;;;;19.02;66.02;96644.38;10564616;28;20363;-30
2022/10/20 03:31:11;;;;;;;3.10;2.20;;;;;;;19.00;64.81;96641.84;10563737;28;20028;-31
2022/10/20 03:36:12;;;;;;;2.78;2.00;;;;;;;19.01;64.63;96645.25;10554938;28;20036;-30
2022/10/20 03:41:12;;;;;;;2.53;1.75;;;;;;;19.00;65.75;96636.78;10562354;28;20028;-30
2022/10/20 03:46:13;;;;;;;2.20;2.00;;;;;;;19.00;64.88;96641.03;10564369;28;20024;-30
2022/10/20 03:51:13;;;;;;;2.13;1.83;;;;;;;18.98;65.42;96642.69;10555465;28;20035;-31
2022/10/20 03:56:19;;;;;;;2.20;2.00;;;;;;;19.01;66.27;96632.56;10565505;28;20468;-30
2022/10/20 04:01:26;;;;;;;2.42;2.00;;;;;;;19.05;67.07;96630.00;10561451;28;20032;-30
2022/10/20 04:06:26;;;;;;;2.75;1.73;;;;;;;19.02;66.71;96611.41;10563368;28;20032;-30
2022/10/20 04:11:26;;;;;;;1.70;1.50;;;;;;;19.08;65.35;96613.94;10562708;28;20099;-30
2022/10/20 04:16:27;;;;;;;2.13;1.73;;;;;;;18.97;65.45;96605.50;10552978;28;20032;-31
2022/10/20 04:21:27;;;;;;;1.70;1.50;;;;;;;19.03;65.70;96595.34;10555715;28;20035;-30
2022/10/20 04:26:28;;;;;;;3.90;1.67;;;;;;;19.02;65.77;96602.09;10559831;28;20386;-29
2022/10/20 04:31:28;;;;;;;2.00;1.80;;;;;;;19.02;66.11;96608.88;10560284;28;20038;-31
2022/10/20 04:36:28;;;;;;;2.57;2.07;;;;;;;19.02;66.01;96603.78;10557670;28;20032;-32
2022/10/20 04:41:29;;;;;;;4.17;1.90;;;;;;;19.00;65.65;96601.25;10564456;28;20037;-30
2022/10/20 04:46:29;;;;;;;2.13;1.73;;;;;;;18.94;64.34;96595.38;10560691;28;20062;-30
2022/10/20 04:51:30;;;;;;;5.15;1.88;;;;;;;18.95;64.96;96591.97;10553209;28;20028;-30
2022/10/20 04:56:30;;;;;;;11.50;3.03;;;;;;;18.95;65.02;96590.31;10563162;28;20031;-30
2022/10/20 05:01:31;;;;;;;8.60;2.53;;;;;;;19.03;65.06;96595.34;10564456;28;20062;-30
2022/10/20 05:06:32;;;;;;;7.53;2.80;;;;;;;18.94;65.45;96591.16;10560493;28;20036;-31
2022/10/20 05:11:35;;;;;;;8.93;3.35;;;;;;;18.97;65.22;96598.75;10549734;28;20554;-31
2022/10/20 05:16:35;;;;;;;4.78;2.05;;;;;;;18.99;64.95;96599.56;10558327;28;20096;-31
2022/10/20 05:21:36;;;;;;;3.40;1.85;;;;;;;18.99;65.22;96599.56;10561683;28;20034;-30
2022/10/20 05:26:36;;;;;;;6.50;2.10;;;;;;;19.00;65.95;96602.97;10559344;28;20035;-30
2022/10/20 05:31:40;;;;;;;5.82;2.58;;;;;;;18.95;64.70;96591.97;10556437;28;20038;-30
2022/10/20 05:36:40;;;;;;;4.43;2.10;;;;;;;18.99;65.83;96606.34;10562186;28;20404;-30
2022/10/20 05:41:40;;;;;;;8.07;2.40;;;;;;;18.79;64.60;96600.50;10569550;28;20040;-31
2022/10/20 05:46:41;;;;;;;8.90;2.00;;;;;;;18.86;64.10;96603.03;10573925;28;20052;-30
2022/10/20 05:51:43;;;;;;;12.32;2.85;;;;;;;18.91;64.76;96593.69;10570243;27;20035;-31
2022/10/20 05:56:43;;;;;;;3.80;1.85;;;;;;;18.86;64.29;96586.94;10575628;27;20054;-30
2022/10/20 06:01:46;;;;;;;5.72;2.45;;;;;;;18.94;65.77;96585.22;10559513;27;20169;-31
2022/10/20 06:06:47;;;;;;;9.02;1.90;;;;;;;19.01;66.13;96592.78;10570158;27;20035;-30
2022/10/20 06:11:48;;;;;;;9.63;2.13;;;;;;;19.06;66.13;96600.38;10574980;27;20044;-31
2022/10/20 06:16:52;;;;;;;4.33;1.90;;;;;;;19.02;65.01;96588.56;10562300;27;20032;-30
2022/10/20 06:21:53;;;;;;;3.70;1.92;;;;;;;19.01;64.42;96607.19;10562344;27;20035;-31
2022/10/20 06:26:53;;;;;;;13.50;2.25;;;;;;;18.87;64.87;96584.41;10557593;27;20409;-31
2022/10/20 06:31:54;;;;;;;3.57;1.80;;;;;;;18.94;64.77;96606.38;10566431;28;20500;-31
2022/10/20 06:36:54;;;;;;;7.10;2.75;;;;;;;18.94;65.76;96601.31;10564122;28;20024;-32
2022/10/20 06:41:55;;;;;;;7.53;2.00;;;;;;;18.98;65.70;96608.03;10570094;28;20031;-30
2022/10/20 06:46:55;;;;;;;7.27;2.40;;;;;;;18.98;65.61;96607.19;10579101;28;20032;-30
2022/10/20 06:51:56;;;;;;;5.32;2.55;;;;;;;18.98;65.35;96612.25;10556841;28;20377;-31
2022/10/20 06:56:56;;;;;;;6.80;2.15;;;;;;;18.96;65.39;96604.66;10567771;28;20051;-29
2022/10/20 07:01:57;;;;;;;4.47;2.00;;;;;;;18.97;65.47;96610.56;10560535;28;20039;-30
2022/10/20 07:06:57;;;;;;;4.77;1.80;;;;;;;19.01;65.94;96622.41;10566937;28;20452;-30
2022/10/20 07:11:57;;;;;;;7.53;2.37;;;;;;;19.00;66.23;96625.81;10559460;28;20032;-30
2022/10/20 07:16:58;;;;;;;4.47;1.80;;;;;;;19.02;65.90;96635.06;10566573;28;20101;-30
2022/10/20 07:21:58;;;;;;;3.20;1.80;;;;;;;19.01;65.16;96642.72;10558717;28;20277;-30
2022/10/20 07:26:59;;;;;;;3.87;2.40;;;;;;;18.99;65.20;96649.50;10562818;28;20400;-30
2022/10/20 07:31:59;;;;;;;5.30;1.80;;;;;;;19.00;65.50;96686.69;10562575;28;20310;-30
2022/10/20 07:36:59;;;;;;;3.90;1.53;;;;;;;18.97;65.63;96696.81;10564242;28;20093;-30
2022/10/20 07:42:00;;;;;;;4.37;1.87;;;;;;;18.94;65.70;96712.06;10562263;28;20031;-30
2022/10/20 07:47:00;;;;;;;2.10;1.73;;;;;;;18.97;65.66;96740.81;10567213;28;20089;-30
2022/10/20 07:52:00;;;;;;;3.93;2.30;;;;;;;18.96;65.51;96749.28;10557690;28;20355;-30
2022/10/20 07:57:01;;;;;;;5.70;2.03;;;;;;;18.96;65.64;96756.03;10561062;28;20043;-31
2022/10/20 08:02:01;;;;;;;2.13;1.80;;;;;;;18.96;65.26;96754.34;10565857;28;20036;-30
2022/10/20 08:07:02;;;;;;;3.45;1.98;;;;;;;18.97;65.55;96757.72;10558337;28;20127;-31
2022/10/20 08:12:04;;;;;;;2.53;1.85;;;;;;;18.98;65.93;96751.78;10564281;28;20039;-30
2022/10/20 08:17:04;;;;;;;3.20;1.60;;;;;;;19.01;66.11;96749.28;10563548;28;20027;-31
2022/10/20 08:22:04;;;;;;;3.30;1.97;;;;;;;19.02;65.38;96743.34;10562795;28;20027;-31
2022/10/20 08:27:05;;;;;;;3.03;1.50;;;;;;;19.00;64.73;96732.34;10560022;28;20283;-30
2022/10/20 08:32:05;;;;;;;3.10;2.00;;;;;;;18.98;64.82;96728.97;10557938;28;20034;-31
2022/10/20 08:37:06;;;;;;;2.92;1.90;;;;;;;18.97;65.20;96737.41;10559372;28;20101;-30
2022/10/20 08:42:09;;;;;;;2.92;1.73;;;;;;;18.97;65.44;96734.88;10561229;28;20113;-30
2022/10/20 08:47:35;;;;;;;3.00;1.55;;;;;;;18.97;65.37;96733.22;10556951;28;20023;-30
2022/10/20 08:52:38;;;;;;;1.50;1.20;;;;;;;18.94;64.69;96723.06;10537410;28;20027;-31
2022/10/20 08:57:39;;;;;;;4.43;1.60;;;;;;;18.95;64.95;96721.38;10561802;28;20112;-30
2022/10/20 09:02:39;;;;;;;2.43;1.73;;;;;;;18.93;64.81;96708.66;10553579;28;20112;-30
2022/10/20 09:07:40;;;;;;;3.00;1.70;;;;;;;18.92;65.00;96696.84;10562381;28;20055;-30
2022/10/20 09:12:42;;;;;;;3.65;2.10;;;;;;;18.91;65.66;96689.25;10560886;28;20874;-30
2022/10/20 09:17:50;;;;;;;6.85;2.05;;;;;;;19.02;65.90;96701.03;10546368;28;20485;-32
2022/10/20 09:22:50;;;;;;;4.25;1.70;;;;;;;19.06;65.68;96709.50;10551949;28;20036;-30
2022/10/20 09:27:52;;;;;;;3.38;1.90;;;;;;;19.03;65.49;96704.44;10560764;28;20393;-29
2022/10/20 09:32:52;;;;;;;2.42;1.60;;;;;;;19.01;65.24;96693.44;10560445;28;20063;-30
2022/10/20 09:37:58;;;;;;;3.00;2.20;;;;;;;18.91;64.88;96685.00;10563875;28;20111;-30
2022/10/20 09:43:05;;;;;;;3.43;1.83;;;;;;;18.95;65.40;96694.31;10560168;28;20030;-30
2022/10/20 09:48:21;;;;;;;6.63;2.17;;;;;;;18.95;65.32;96696.00;10559152;28;20109;-30
2022/10/20 09:53:31;;;;;;;12.70;2.00;;;;;;;18.94;64.74;96699.38;10554177;28;20459;-32
2022/10/20 09:58:36;;;;;;;9.68;2.33;;;;;;;18.94;64.29;96697.69;10560376;28;20035;-30
2022/10/20 10:03:47;;;;;;;8.02;2.00;;;;;;;18.93;64.09;96682.47;10559063;28;20055;-30
2022/10/20 10:08:47;;;;;;;5.32;1.60;;;;;;;18.93;63.86;96664.72;10555152;28;20039;-31
2022/10/20 10:13:50;;;;;;;9.47;1.97;;;;;;;18.92;64.02;96647.81;10551576;28;20043;-31
2022/10/20 10:19:16;;;;;;;3.67;2.10;;;;;;;18.95;65.77;96657.94;10551121;28;20032;-31
2022/10/20 10:24:29;;;;;;;5.30;1.77;;;;;;;19.03;66.29;96671.44;10552388;28;20111;-32
2022/10/20 10:29:34;;;;;;;8.27;1.98;;;;;;;19.03;66.21;96648.63;10559152;28;20035;-30
2022/10/20 10:34:48;;;;;;;2.38;1.55;;;;;;;19.03;64.89;96653.69;10557909;28;20055;-30
2022/10/20 10:39:49;;;;;;;4.40;1.50;;;;;;;18.95;64.06;96663.88;10568130;28;20043;-30
2022/10/20 10:45:44;;;;;;;3.25;2.60;;;;;;;18.94;64.19;96641.88;10564267;28;20031;-30
2022/10/20 10:50:59;;;;;;;5.38;1.50;;;;;;;18.95;64.56;96617.34;10521431;28;20064;-31
2022/10/20 10:56:12;;;;;;;2.80;1.67;;;;;;;18.95;64.97;96594.50;10558083;28;20124;-30
2022/10/20 11:01:25;;;;;;;4.03;1.80;;;;;;;18.95;64.39;96584.38;10562841;28;20165;-31
2022/10/20 11:06:43;;;;;;;7.88;2.60;;;;;;;18.95;64.35;96580.16;10566417;28;20110;-30
2022/10/20 11:12:21;;;;;;;2.63;1.40;;;;;;;18.94;64.24;96575.94;10561171;28;20027;-30
2022/10/20 11:17:36;;;;;;;2.97;1.30;;;;;;;18.95;64.86;96581.81;10568022;28;20058;-31
2022/10/20 11:22:43;;;;;;;2.70;1.33;;;;;;;18.94;64.15;96580.16;10563949;28;20036;-30
2022/10/20 11:27:44;;;;;;;2.28;1.25;;;;;;;19.01;65.94;96597.03;10547996;28;20047;-31
2022/10/20 11:32:44;;;;;;;2.42;1.38;;;;;;;19.06;65.88;96605.44;10553031;28;20035;-31
2022/10/20 11:38:24;;;;;;;4.70;1.70;;;;;;;19.08;64.98;96616.47;10555283;28;20046;-31
2022/10/20 11:43:51;;;;;;;8.60;2.10;;;;;;;19.02;64.55;96613.94;10526188;28;20035;-30
2022/10/20 11:48:55;;;;;;;10.35;1.98;;;;;;;18.96;64.03;96598.72;10557662;28;20058;-30
2022/10/20 11:54:24;;;;;;;4.38;1.50;;;;;;;18.95;64.19;96591.97;10562851;28;20119;-30
2022/10/20 12:00:03;;;;;;;3.00;1.40;;;;;;;18.94;63.94;96573.41;10564839;28;20499;-30
2022/10/20 12:05:18;;;;;;;9.00;1.88;;;;;;;18.93;63.98;96583.53;10554539;28;20035;-30
2022/10/20 12:10:40;;;;;;;5.15;1.63;;;;;;;18.93;64.09;96584.34;10558552;28;20195;-30
2022/10/20 12:15:49;;;;;;;4.68;1.42;;;;;;;18.90;65.21;96588.59;10560537;28;20462;-31
2022/10/20 12:20:53;;;;;;;3.25;2.00;;;;;;;18.89;64.94;96586.91;10550214;28;20410;-31
2022/10/20 12:25:54;;;;;;;2.55;1.45;;;;;;;18.89;64.12;96586.91;10561511;28;20062;-31
2022/10/20 12:30:56;;;;;;;7.67;2.53;;;;;;;18.98;66.88;96577.59;10557098;28;20098;-31
2022/10/20 12:36:20;;;;;;;13.43;3.05;;;;;;;19.03;66.91;96569.97;10556070;28;20402;-31
2022/10/20 12:41:32;;;;;;;9.60;1.55;;;;;;;19.05;65.81;96573.31;10547221;28;20042;-30
2022/10/20 12:46:43;;;;;;;7.50;1.50;;;;;;;19.00;65.08;96570.81;10555596;28;20083;-30
2022/10/20 12:51:50;;;;;;;3.42;1.58;;;;;;;18.95;64.41;96564.94;10552793;28;20065;-30
2022/10/20 12:56:58;;;;;;;6.70;1.83;;;;;;;18.96;65.19;96558.16;10564574;28;20039;-30
2022/10/20 13:02:07;;;;;;;4.00;1.60;;;;;;;18.96;64.34;96542.91;10562055;28;20089;-31
2022/10/20 13:07:08;;;;;;;5.05;1.40;;;;;;;18.94;64.11;96542.09;10564054;28;20039;-30
2022/10/20 13:12:25;;;;;;;2.05;1.75;;;;;;;18.92;64.28;96531.94;10558460;28;20039;-30
2022/10/20 13:17:29;;;;;;;;;;;;;;;18.92;64.16;96526.03;10557668;28;20051;-31
2022/10/20 13:22:41;;;;;;;6.35;1.65;;;;;;;18.88;64.19;96524.34;10555011;28;20254;-31
2022/10/20 13:27:42;;;;;;;4.82;1.92;;;;;;;18.91;64.08;96529.44;10550771;28;20442;-31
2022/10/20 13:32:51;;;;;;;4.53;1.20;;;;;;;18.92;65.87;96531.13;10565168;28;20031;-31
2022/10/20 13:37:57;;;;;;;3.75;1.25;;;;;;;19.02;66.24;96522.59;10559716;28;20036;-30
2022/10/20 13:43:16;;;;;;;3.35;1.70;;;;;;;19.05;66.67;96520.03;10557409;28;20045;-30
2022/10/20 13:48:22;;;;;;;3.47;1.95;;;;;;;18.97;65.34;96514.16;10559776;28;20127;-30
2022/10/20 13:53:29;;;;;;;4.07;1.45;;;;;;;18.98;65.20;96528.53;10562941;28;20482;-31
2022/10/20 13:58:30;;;;;;;3.75;1.40;;;;;;;18.96;64.86;96542.91;10564215;28;20035;-31
2022/10/20 14:03:39;;;;;;;3.33;1.35;;;;;;;18.95;64.83;96521.81;10565785;28;20500;-30
2022/10/20 14:08:42;;;;;;;3.20;1.13;;;;;;;18.94;64.31;96530.25;10568618;28;20481;-30
2022/10/20 14:13:43;;;;;;;3.08;1.23;;;;;;;18.93;64.36;96518.41;10567612;28;20085;-30
2022/10/20 14:19:02;;;;;;;2.67;1.00;;;;;;;18.92;64.14;96516.72;10562799;28;20063;-30
2022/10/20 14:24:03;;;;;;;1.38;1.25;;;;;;;18.93;64.19;96522.66;10564960;28;20027;-32
2022/10/20 14:29:03;;;;;;;2.25;1.23;;;;;;;18.92;64.44;96515.91;10559464;28;20065;-31
2022/10/20 14:34:04;;;;;;;2.17;1.30;;;;;;;18.91;64.05;96530.25;10570151;28;20024;-31
2022/10/20 14:39:04;;;;;;;3.47;1.48;;;;;;;18.97;66.76;96526.84;10561015;28;20427;-30
2022/10/20 14:44:07;;;;;;;2.45;1.42;;;;;;;19.03;66.81;96547.97;10573946;28;20050;-31
2022/10/20 14:49:25;;;;;;;3.67;1.40;;;;;;;19.04;65.84;96539.50;10567045;28;20034;-31
2022/10/20 14:54:34;;;;;;;1.42;1.33;;;;;;;19.00;65.36;96520.06;10572831;28;20023;-31
2022/10/20 14:59:48;;;;;;;2.85;1.13;;;;;;;18.98;65.48;96520.91;10562971;28;20112;-30
2022/10/20 15:04:52;;;;;;;6.93;1.40;;;;;;;18.95;64.30;96509.13;10569207;28;20039;-32
2022/10/20 15:09:59;;;;;;;1.70;1.10;;;;;;;18.93;64.63;96493.03;10567679;28;20044;-29
2022/10/20 15:15:35;;;;;;;1.98;1.77;;;;;;;18.95;64.57;96500.66;10559354;28;20036;-31
2022/10/20 15:20:38;;;;;;;1.53;1.40;;;;;;;18.94;64.23;96501.50;10563851;28;20097;-30
2022/10/20 15:25:44;;;;;;;1.35;1.20;;;;;;;18.94;64.77;96491.34;10567985;28;20024;-31
2022/10/20 15:30:45;;;;;;;3.40;1.35;;;;;;;18.93;64.20;96484.59;10555555;28;20028;-30
2022/10/20 15:35:46;;;;;;;5.45;1.40;;;;;;;18.92;64.26;96470.22;10561439;28;20040;-33
2022/10/20 15:40:47;;;;;;;1.50;1.40;;;;;;;18.92;64.10;96462.63;10571515;28;20028;-30
2022/10/20 15:45:53;;;;;;;2.70;1.27;;;;;;;18.94;66.20;96448.22;10568623;28;20088;-30
2022/10/20 15:50:55;;;;;;;3.40;1.27;;;;;;;19.04;66.33;96465.06;10559888;28;20023;-31
2022/10/20 15:55:56;;;;;;;1.25;1.10;;;;;;;19.03;65.49;96468.47;10566288;28;20357;-31
2022/10/20 16:00:56;;;;;;;1.63;1.17;;;;;;;18.95;65.19;96470.22;10556177;28;20088;-30
2022/10/20 16:05:56;;;;;;;1.60;1.30;;;;;;;18.96;64.87;96471.88;10558249;28;20043;-32
2022/10/20 16:10:57;;;;;;;2.90;1.67;;;;;;;18.91;64.96;96440.66;10562616;28;20043;-30
2022/10/20 16:15:58;;;;;;;1.90;1.25;;;;;;;18.95;64.60;96444.84;10558712;28;20051;-30
2022/10/20 16:20:59;;;;;;;0.95;0.85;;;;;;;18.90;64.25;96438.94;10556747;28;20044;-30
2022/10/20 16:25:59;;;;;;;1.17;1.02;;;;;;;18.87;64.06;96444.91;10559426;28;20541;-30
2022/10/20 16:31:04;;;;;;;0.90;0.90;;;;;;;18.85;64.05;96438.16;10559823;28;20110;-30
2022/10/20 16:36:07;;;;;;;3.28;1.17;;;;;;;18.90;64.07;96454.16;10555455;28;20761;-30
2022/10/20 16:41:10;;;;;;;1.20;0.90;;;;;;;18.94;64.31;96458.38;10565789;28;20458;-30
2022/10/20 16:46:13;;;;;;;0.98;0.80;;;;;;;18.91;64.25;96455.88;10558908;27;20027;-30
2022/10/20 16:51:14;;;;;;;2.05;1.42;;;;;;;19.01;66.82;96468.47;10553263;28;20076;-32
2022/10/20 16:56:14;;;;;;;2.55;1.42;;;;;;;19.09;66.51;96489.56;10546373;28;20137;-31
2022/10/20 17:01:20;;;;;;;1.23;0.97;;;;;;;19.03;65.16;96491.31;10537378;28;20628;-30
2022/10/20 17:06:23;;;;;;;1.85;0.95;;;;;;;19.00;64.26;96494.69;10539564;28;20277;-29
2022/10/20 17:11:27;;;;;;;1.20;0.80;;;;;;;18.93;64.34;96479.53;10550218;28;20063;-30
2022/10/20 17:16:30;;;;;;;1.35;0.65;;;;;;;18.98;64.14;96505.69;10547599;28;20111;-32
2022/10/20 17:21:32;;;;;;;1.65;1.02;;;;;;;18.92;64.42;96468.53;10544866;28;20034;-31
2022/10/20 17:26:32;;;;;;;1.23;0.90;;;;;;;18.95;64.07;96480.34;10553523;28;20026;-30
2022/10/20 17:31:33;;;;;;;1.92;0.93;;;;;;;18.92;64.26;96447.41;10556101;28;20465;-31
2022/10/20 17:36:33;;;;;;;2.27;1.13;;;;;;;18.94;64.45;96468.53;10540477;28;20412;-30
2022/10/20 17:41:34;;;;;;;4.13;1.50;;;;;;;19.03;67.09;96468.47;10520834;28;20031;-30
2022/10/20 17:46:35;;;;;;;4.40;1.80;;;;;;;19.00;67.34;96458.34;10546684;28;20032;-30
2022/10/20 17:51:35;;;;;;;2.38;1.20;;;;;;;18.98;66.20;96465.09;10547941;28;20047;-31
2022/10/20 17:56:38;;;;;;;2.38;1.00;;;;;;;19.02;64.61;96466.78;10557933;28;20111;-30
2022/10/20 18:01:40;;;;;;;1.90;1.33;;;;;;;18.96;64.36;96474.41;10549359;28;20034;-30
2022/10/20 18:06:41;;;;;;;3.08;1.10;;;;;;;18.93;64.15;96460.06;10558332;28;20517;-31
2022/10/20 18:11:44;;;;;;;1.17;1.05;;;;;;;18.92;64.44;96450.75;10550990;28;20027;-30
2022/10/20 18:16:45;;;;;;;1.58;0.90;;;;;;;18.94;64.42;96448.22;10558659;28;20519;-31
2022/10/20 18:21:46;;;;;;;1.92;0.93;;;;;;;18.98;64.36;96449.88;10555822;28;20028;-32
2022/10/20 18:26:47;;;;;;;1.10;0.80;;;;;;;18.97;64.01;96464.28;10554058;28;20027;-30
2022/10/20 18:31:48;;;;;;;1.30;0.93;;;;;;;18.92;64.16;96439.78;10553336;28;20044;-32
2022/10/20 18:36:50;;;;;;;4.53;1.45;;;;;;;19.05;67.24;96437.16;10549028;28;20032;-32
2022/10/20 18:41:51;;;;;;;4.55;1.75;;;;;;;19.08;67.29;96438.84;10550596;28;20413;-31
2022/10/20 18:46:56;;;;;;;2.78;1.60;;;;;;;19.07;65.34;96425.31;10560574;28;20032;-31
2022/10/20 18:51:56;;;;;;;2.25;1.00;;;;;;;19.05;64.24;96411.78;10558969;28;20039;-33
2022/10/20 18:56:56;;;;;;;1.85;0.93;;;;;;;19.02;64.09;96416.03;10557746;28;20263;-30
2022/10/20 19:01:57;;;;;;;1.63;1.00;;;;;;;18.98;64.17;96409.28;10556609;28;20051;-32
2022/10/20 19:06:57;;;;;;;4.27;1.10;;;;;;;18.98;64.33;96412.69;10558780;28;20729;-30
2022/10/20 19:11:59;;;;;;;1.00;0.80;;;;;;;18.94;64.53;96417.78;10560554;28;20481;-30
2022/10/20 19:16:59;;;;;;;4.20;0.80;;;;;;;18.95;64.04;96427.09;10561047;28;20039;-31
2022/10/20 19:22:00;;;;;;;1.17;1.00;;;;;;;18.95;64.41;96424.53;10558248;28;20031;-30
2022/10/20 19:27:00;;;;;;;2.73;1.00;;;;;;;18.93;65.97;96429.63;10564518;28;20446;-30
2022/10/20 19:32:03;;;;;;;2.00;1.23;;;;;;;19.04;66.91;96420.25;10568287;28;20036;-30
2022/10/20 19:37:04;;;;;;;1.75;1.10;;;;;;;19.06;66.90;96417.69;10556382;28;20023;-31
2022/10/20 19:42:06;;;;;;;1.23;1.13;;;;;;;19.09;66.27;96420.22;10569557;28;20023;-31
2022/10/20 19:47:07;;;;;;;2.58;0.98;;;;;;;19.21;65.18;96425.22;10560278;28;20458;-31
2022/10/20 19:52:08;;;;;;;4.57;1.80;;;;;;;19.09;66.04;96417.69;10565048;28;20035;-31
2022/10/20 19:57:08;;;;;;;2.55;1.65;;;;;;;18.97;65.84;96403.38;10563005;28;20024;-30
2022/10/20 20:02:11;;;;;;;1.67;1.52;;;;;;;19.02;65.49;96409.25;10560040;28;20320;-31
2022/10/20 20:07:11;;;;;;;1.75;1.33;;;;;;;18.98;64.55;96416.91;10571860;28;20038;-30
2022/10/20 20:12:12;;;;;;;2.13;1.13;;;;;;;18.98;64.42;96419.44;10559319;28;20044;-30
2022/10/20 20:17:12;;;;;;;1.17;1.00;;;;;;;18.95;64.37;96409.31;10560736;28;20405;-31
2022/10/20 20:22:13;;;;;;;2.33;0.90;;;;;;;18.95;64.27;96414.41;10556368;28;20034;-31
2022/10/20 20:27:13;;;;;;;4.20;1.60;;;;;;;18.99;66.69;96403.38;10560384;28;20285;-31
2022/10/20 20:32:15;;;;;;;2.38;1.30;;;;;;;18.96;67.22;96395.78;10562518;28;20099;-30
2022/10/20 20:37:16;;;;;;;1.17;1.05;;;;;;;19.09;67.01;96421.06;10562198;28;20028;-31
2022/10/20 20:42:16;;;;;;;2.40;1.17;;;;;;;19.01;66.00;96415.19;10559649;28;20030;-30
2022/10/20 20:47:17;;;;;;;5.87;2.00;;;;;;;18.97;65.60;96405.94;10560906;28;20046;-31
2022/10/20 20:52:17;;;;;;;2.00;0.90;;;;;;;18.97;64.45;96415.22;10555192;28;20035;-31
2022/10/20 20:57:17;;;;;;;2.63;1.23;;;;;;;18.94;64.76;96403.44;10554203;28;20035;-30
2022/10/20 21:02:18;;;;;;;2.87;1.10;;;;;;;18.96;64.52;96416.94;10561108;28;20031;-32
2022/10/20 21:07:18;;;;;;;2.50;1.37;;;;;;;18.95;65.11;96415.25;10556665;28;20339;-31
2022/10/20 21:12:18;;;;;;;3.93;1.13;;;;;;;18.97;64.79;96416.06;10560226;28;20031;-30
2022/10/20 21:17:19;;;;;;;2.43;1.20;;;;;;;18.97;65.95;96405.06;10558664;28;20050;-30
2022/10/20 21:22:19;;;;;;;2.15;0.85;;;;;;;18.94;64.46;96403.44;10553039;28;20024;-31
2022/10/20 21:27:20;;;;;;;4.43;1.40;;;;;;;19.03;67.03;96397.44;10561468;28;20031;-30
2022/10/20 21:32:20;;;;;;;3.53;1.10;;;;;;;19.04;67.37;96404.19;10552710;28;20034;-30
2022/10/20 21:37:21;;;;;;;3.97;1.30;;;;;;;19.03;66.12;96412.66;10550123;28;20031;-30
2022/10/20 21:42:22;;;;;;;2.15;1.13;;;;;;;19.01;65.74;96406.75;10563483;28;20095;-31
2022/10/20 21:47:22;;;;;;;3.03;1.10;;;;;;;19.01;65.95;96404.22;10560087;28;20140;-31
2022/10/20 21:52:22;;;;;;;2.50;1.20;;;;;;;18.97;66.07;96402.53;10551507;28;20040;-26
2022/10/20 21:57:23;;;;;;;2.10;1.23;;;;;;;18.92;64.81;96392.41;10560902;28;20104;-30
2022/10/20 22:02:23;;;;;;;2.40;1.07;;;;;;;18.92;64.72;96400.03;10561318;28;20032;-31
2022/10/20 22:07:23;;;;;;;2.57;1.00;;;;;;;18.93;64.56;96393.28;10558609;28;20173;-31
2022/10/20 22:12:24;;;;;;;1.43;0.90;;;;;;;18.92;64.44;96401.75;10557034;28;20028;-30
2022/10/20 22:17:24;;;;;;;1.60;1.40;;;;;;;18.93;64.97;96398.34;10556709;28;20298;-31
2022/10/20 22:22:26;;;;;;;1.35;0.98;;;;;;;18.92;64.51;96389.06;10561279;28;20290;-33
2022/10/20 22:27:26;;;;;;;3.28;1.17;;;;;;;18.99;67.30;96386.47;10570771;28;20489;-31
2022/10/20 22:32:27;;;;;;;3.13;1.27;;;;;;;19.00;67.29;96372.09;10570184;28;20051;-31
2022/10/20 22:37:27;;;;;;;2.43;0.90;;;;;;;19.01;65.95;96391.53;10564613;28;20080;-30
2022/10/20 22:42:27;;;;;;;2.20;1.00;;;;;;;19.00;65.59;96392.38;10570096;28;20038;-30
2022/10/20 22:47:28;;;;;;;1.97;1.30;;;;;;;18.98;65.08;96378.84;10565901;28;20085;-30
2022/10/20 22:52:28;;;;;;;1.77;1.43;;;;;;;18.95;66.07;96369.59;10559780;28;20024;-31
2022/10/20 22:57:28;;;;;;;1.73;1.00;;;;;;;18.97;66.20;96397.47;10569207;28;20035;-31
2022/10/20 23:02:29;;;;;;;1.80;1.27;;;;;;;18.97;65.96;96400.00;10566636;28;20029;-30
2022/10/20 23:07:29;;;;;;;1.10;1.00;;;;;;;18.94;64.67;96383.13;10568145;28;20293;-31
2022/10/20 23:12:30;;;;;;;1.70;1.20;;;;;;;18.95;64.99;96389.03;10565196;28;20028;-30
2022/10/20 23:17:31;;;;;;;1.60;1.42;;;;;;;18.94;66.33;96364.53;10562204;28;20027;-31
2022/10/20 23:22:31;;;;;;;1.17;0.95;;;;;;;18.95;65.15;96381.41;10560102;28;20393;-30
2022/10/20 23:27:32;;;;;;;2.50;1.33;;;;;;;18.98;67.35;96367.03;10563403;28;20531;-30
2022/10/20 23:32:33;;;;;;;5.45;1.30;;;;;;;19.01;67.36;96368.69;10563472;28;20384;-30